createdAt,value
2022-08-19T00:01:43.282Z,25.67
2022-08-19T00:04:13.915Z,25.13
2022-08-19T00:06:44.259Z,26.40
2022-08-19T00:09:15.625Z,25.10
2022-08-19T00:11:44.612Z,26.10
2022-08-19T00:14:15.739Z,26.10
2022-08-19T00:16:46.405Z,27.30
2022-08-19T00:19:14.637Z,28.53
2022-08-19T00:21:42.497Z,23.70
2022-08-19T00:24:11.793Z,26.40
2022-08-19T00:26:40.212Z,26.53
2022-08-19T00:29:09.593Z,25.47
2022-08-19T00:31:38.834Z,25.37
2022-08-19T00:34:06.656Z,28.83
2022-08-19T00:36:34.630Z,27.47
2022-08-19T00:39:03.264Z,28.77
2022-08-19T00:41:31.521Z,27.57
2022-08-19T00:44:01.795Z,26.47
2022-08-19T00:46:30.291Z,27.80
2022-08-19T00:48:59.961Z,29.83
2022-08-19T00:51:33.401Z,27.90
2022-08-19T00:54:03.646Z,26.00
2022-08-19T00:56:33.362Z,29.63
2022-08-19T00:59:02.616Z,30.07
2022-08-19T01:01:30.799Z,29.00
2022-08-19T01:04:00.207Z,28.53
2022-08-19T01:06:28.363Z,25.23
2022-08-19T01:08:56.791Z,24.83
2022-08-19T01:11:24.800Z,25.73
2022-08-19T01:13:54.116Z,26.40
2022-08-19T01:16:24.352Z,24.20
2022-08-19T01:18:52.654Z,24.33
2022-08-19T01:21:27.996Z,28.27
2022-08-19T01:23:57.250Z,25.33
2022-08-19T01:26:26.640Z,26.43
2022-08-19T01:28:59.633Z,24.30
2022-08-19T01:31:32.533Z,24.13
2022-08-19T01:34:01.978Z,22.63
2022-08-19T01:36:32.541Z,24.40
2022-08-19T01:39:03.894Z,24.10
2022-08-19T01:41:35.057Z,22.57
2022-08-19T01:44:18.159Z,24.20
2022-08-19T01:46:49.156Z,24.10
2022-08-19T01:49:18.497Z,23.53
2022-08-19T01:51:46.446Z,21.87
2022-08-19T01:54:23.411Z,23.73
2022-08-19T01:56:59.790Z,21.97
2022-08-19T01:59:27.653Z,22.63
2022-08-19T02:01:56.043Z,23.03
2022-08-19T02:04:24.376Z,23.10
2022-08-19T02:06:52.257Z,23.60
2022-08-19T02:09:21.476Z,21.30
2022-08-19T02:11:49.455Z,21.47
2022-08-19T02:14:17.307Z,20.70
2022-08-19T02:16:45.168Z,22.37
2022-08-19T02:19:13.061Z,21.53
2022-08-19T02:21:40.966Z,23.13
2022-08-19T02:24:08.927Z,22.13
2022-08-19T02:26:38.347Z,22.50
2022-08-19T02:29:06.434Z,22.27
2022-08-19T02:31:34.293Z,23.53
2022-08-19T02:34:02.376Z,23.73
2022-08-19T02:36:31.204Z,21.07
2022-08-19T02:38:58.316Z,22.27
2022-08-19T02:41:28.395Z,22.23
2022-08-19T02:44:30.081Z,24.33
2022-08-19T02:46:51.688Z,21.73
2022-08-19T02:49:20.986Z,22.40
2022-08-19T02:51:49.223Z,24.37
2022-08-19T02:54:17.704Z,24.50
2022-08-19T02:56:46.630Z,25.27
2022-08-19T02:59:15.823Z,21.97
2022-08-19T03:01:43.970Z,23.47
2022-08-19T03:04:13.933Z,22.47
2022-08-19T03:06:44.090Z,24.57
2022-08-19T03:09:12.903Z,23.27
2022-08-19T03:11:41.688Z,23.87
2022-08-19T03:14:10.755Z,20.73
2022-08-19T03:16:47.317Z,27.80
2022-08-19T03:19:16.067Z,25.27
2022-08-19T03:21:46.594Z,23.63
2022-08-19T03:24:15.752Z,27.07
2022-08-19T03:26:45.043Z,24.43
2022-08-19T03:29:13.419Z,24.10
2022-08-19T03:31:52.717Z,24.00
2022-08-19T03:34:23.984Z,25.30
2022-08-19T03:36:51.967Z,25.33
2022-08-19T03:39:19.977Z,23.60
2022-08-19T03:41:49.955Z,23.97
2022-08-19T03:44:38.591Z,25.13
2022-08-19T03:47:08.248Z,24.90
2022-08-19T03:49:37.506Z,26.90
2022-08-19T03:52:08.387Z,29.23
2022-08-19T03:54:36.919Z,24.53
2022-08-19T03:57:05.206Z,26.93
2022-08-19T03:59:34.998Z,24.27
2022-08-19T04:02:08.807Z,24.43
2022-08-19T04:04:39.312Z,27.17
2022-08-19T04:07:07.197Z,24.33
2022-08-19T04:09:37.133Z,26.33
2022-08-19T04:12:06.678Z,26.07
2022-08-19T04:14:35.579Z,23.63
2022-08-19T04:17:05.776Z,25.13
2022-08-19T04:19:34.702Z,23.10
2022-08-19T04:22:04.883Z,25.63
2022-08-19T04:24:33.067Z,27.20
2022-08-19T04:27:02.367Z,25.73
2022-08-19T04:29:31.245Z,27.57
2022-08-19T04:32:00.333Z,24.63
2022-08-19T04:35:02.517Z,27.23
2022-08-19T04:37:34.900Z,27.40
2022-08-19T04:40:23.090Z,27.33
2022-08-19T04:42:50.989Z,28.10
2022-08-19T04:45:18.870Z,26.70
2022-08-19T04:47:58.427Z,25.47
2022-08-19T04:50:38.617Z,28.77
2022-08-19T04:53:07.830Z,31.40
2022-08-19T04:55:38.310Z,27.07
2022-08-19T04:58:06.244Z,27.20
2022-08-19T05:00:34.065Z,27.57
2022-08-19T05:03:07.571Z,28.10
2022-08-19T05:05:44.833Z,26.27
2022-08-19T05:08:31.260Z,26.53
2022-08-19T05:10:59.658Z,24.60
2022-08-19T05:13:28.437Z,27.33
2022-08-19T05:15:57.701Z,28.50
2022-08-19T05:18:57.436Z,28.47
2022-08-19T05:21:45.113Z,25.43
2022-08-19T05:24:14.860Z,24.33
2022-08-19T05:26:46.477Z,27.43
2022-08-19T05:29:15.723Z,28.93
2022-08-19T05:31:44.292Z,27.40
2022-08-19T05:34:20.106Z,28.13
2022-08-19T05:36:48.619Z,28.03
2022-08-19T05:39:20.398Z,24.73
2022-08-19T05:41:50.887Z,28.00
2022-08-19T05:44:19.494Z,26.97
2022-08-19T05:46:48.061Z,25.17
2022-08-19T05:49:17.535Z,28.40
2022-08-19T05:51:45.489Z,25.80
2022-08-19T05:54:14.365Z,26.50
2022-08-19T05:56:44.536Z,28.23
2022-08-19T05:59:13.093Z,28.00
2022-08-19T06:01:43.273Z,30.23
2022-08-19T06:04:11.146Z,25.43
2022-08-19T06:06:39.053Z,28.10
2022-08-19T06:09:08.522Z,27.07
2022-08-19T06:11:38.744Z,28.03
2022-08-19T06:14:10.303Z,24.70
2022-08-19T06:16:46.275Z,29.43
2022-08-19T06:19:17.306Z,27.87
2022-08-19T06:21:48.677Z,29.10
2022-08-19T06:24:19.334Z,29.70
2022-08-19T06:29:25.899Z,28.03
2022-08-19T06:31:56.198Z,29.93
2022-08-19T06:34:24.922Z,26.13
2022-08-19T06:36:54.101Z,28.67
2022-08-19T06:39:26.106Z,33.17
2022-08-19T06:41:58.690Z,27.57
2022-08-19T06:44:31.929Z,34.63
2022-08-19T06:46:59.880Z,25.80
2022-08-19T06:49:31.942Z,28.50
2022-08-19T06:52:02.035Z,27.47
2022-08-19T06:54:31.145Z,30.30
2022-08-19T06:57:02.924Z,29.50
2022-08-19T06:59:34.098Z,27.40
2022-08-19T07:02:05.674Z,26.67
2022-08-19T07:04:35.673Z,29.10
2022-08-19T07:07:21.392Z,28.60
2022-08-19T07:09:52.217Z,28.70
2022-08-19T07:12:32.322Z,30.03
2022-08-19T07:15:01.630Z,32.83
2022-08-19T07:17:29.649Z,30.17
2022-08-19T07:19:58.954Z,27.93
2022-08-19T07:22:34.498Z,30.53
2022-08-19T07:25:04.562Z,30.70
2022-08-19T07:27:33.736Z,28.57
2022-08-19T07:30:03.240Z,27.27
2022-08-19T07:32:31.775Z,28.87
2022-08-19T07:35:01.430Z,29.70
2022-08-19T07:37:33.174Z,26.40
2022-08-19T07:40:02.017Z,26.83
2022-08-19T07:42:30.362Z,29.50
2022-08-19T07:44:58.749Z,31.67
2022-08-19T07:47:50.025Z,30.90
2022-08-19T07:50:19.346Z,29.27
2022-08-19T07:52:48.994Z,30.30
2022-08-19T07:55:42.171Z,29.83
2022-08-19T07:58:07.184Z,30.07
2022-08-19T08:00:36.230Z,31.60
2022-08-19T08:03:05.755Z,32.80
2022-08-19T08:05:50.970Z,31.57
2022-08-19T08:08:44.246Z,36.97
2022-08-19T08:11:17.591Z,31.17
2022-08-19T08:14:01.381Z,50.70
2022-08-19T08:16:33.087Z,38.50
2022-08-19T08:19:07.300Z,79.47
2022-08-19T08:21:49.458Z,37.83
2022-08-19T08:24:18.512Z,46.90
2022-08-19T08:26:47.234Z,40.23
2022-08-19T08:29:20.696Z,34.00
2022-08-19T08:31:59.740Z,31.73
2022-08-19T08:34:29.486Z,31.10
2022-08-19T08:36:57.471Z,31.83
2022-08-19T08:39:25.312Z,31.77
2022-08-19T08:41:59.375Z,30.90
2022-08-19T08:44:34.180Z,32.50
2022-08-19T08:47:07.885Z,32.70
2022-08-19T08:49:47.702Z,30.40
2022-08-19T08:52:24.698Z,29.53
2022-08-19T08:55:10.406Z,30.87
2022-08-19T08:57:42.526Z,32.90
2022-08-19T09:00:16.130Z,32.10
2022-08-19T09:02:44.135Z,31.83
2022-08-19T09:05:16.486Z,31.97
2022-08-19T09:07:55.234Z,34.20
2022-08-19T09:10:31.542Z,34.83
2022-08-19T09:13:09.220Z,29.73
2022-08-19T09:15:42.601Z,33.57
2022-08-19T09:18:19.075Z,33.70
2022-08-19T09:20:49.194Z,31.03
2022-08-19T09:23:17.997Z,32.50
2022-08-19T09:25:54.707Z,31.77
2022-08-19T09:28:27.065Z,28.30
2022-08-19T09:30:55.504Z,29.03
2022-08-19T09:33:23.449Z,32.67
2022-08-19T09:35:53.705Z,33.40
2022-08-19T09:38:22.159Z,33.90
2022-08-19T09:40:50.925Z,29.07
2022-08-19T09:43:33.338Z,29.87
2022-08-19T09:46:02.520Z,34.73
2022-08-19T09:48:30.357Z,31.90
2022-08-19T09:51:06.159Z,32.37
2022-08-19T09:53:34.188Z,33.97
2022-08-19T09:56:09.493Z,32.27
2022-08-19T09:58:38.199Z,31.37
2022-08-19T10:01:07.226Z,31.90
2022-08-19T10:07:36.038Z,30.27
2022-08-19T10:10:05.443Z,31.97
2022-08-19T10:12:36.479Z,32.10
2022-08-19T10:15:05.064Z,30.93
2022-08-19T10:17:34.354Z,31.47
2022-08-19T10:20:03.550Z,32.57
2022-08-19T10:22:33.202Z,32.63
2022-08-19T10:25:01.863Z,29.53
2022-08-19T10:27:29.764Z,29.67
2022-08-19T10:30:00.020Z,32.93
2022-08-19T10:32:34.376Z,28.03
2022-08-19T10:35:02.790Z,27.93
2022-08-19T10:37:35.409Z,23.73
2022-08-19T10:40:04.144Z,24.73
2022-08-19T10:42:32.481Z,25.03
2022-08-19T10:45:00.468Z,27.67
2022-08-19T10:47:31.736Z,25.07
2022-08-19T10:50:17.342Z,27.37
2022-08-19T10:52:50.511Z,25.33
2022-08-19T10:55:38.054Z,25.90
2022-08-19T10:58:06.907Z,27.53
2022-08-19T11:00:36.869Z,26.97
2022-08-19T11:03:05.409Z,22.90
2022-08-19T11:05:36.480Z,26.40
2022-08-19T11:08:22.270Z,24.97
2022-08-19T11:10:51.694Z,24.37
2022-08-19T11:13:19.523Z,22.63
2022-08-19T11:15:48.432Z,21.73
2022-08-19T11:18:17.897Z,23.80
2022-08-19T11:20:45.703Z,21.97
2022-08-19T11:23:14.858Z,23.43
2022-08-19T11:25:42.678Z,21.30
2022-08-19T11:28:10.501Z,22.67
2022-08-19T11:30:39.399Z,22.93
2022-08-19T11:33:07.305Z,21.97
2022-08-19T11:35:35.148Z,20.60
2022-08-19T11:38:05.475Z,22.40
2022-08-19T11:40:37.441Z,23.93
2022-08-19T11:43:05.687Z,22.27
2022-08-19T11:45:33.533Z,19.80
2022-08-19T11:48:01.765Z,19.57
2022-08-19T11:50:29.742Z,20.33
2022-08-19T11:52:58.487Z,20.97
2022-08-19T11:55:26.436Z,19.97
2022-08-19T11:57:55.871Z,19.53
2022-08-19T12:00:23.885Z,24.03
2022-08-19T12:02:51.703Z,20.23
2022-08-19T12:05:19.573Z,21.83
2022-08-19T12:07:47.473Z,20.63
2022-08-19T12:10:15.966Z,18.40
2022-08-19T12:12:47.491Z,18.80
2022-08-19T12:15:29.503Z,21.20
2022-08-19T12:18:06.271Z,23.73
2022-08-19T12:20:37.194Z,23.40
2022-08-19T12:23:55.607Z,26.67
2022-08-19T12:30:14.194Z,25.20
2022-08-19T12:32:43.638Z,25.20
2022-08-19T12:35:12.339Z,25.80
2022-08-19T12:37:45.334Z,28.70
2022-08-19T12:40:26.475Z,25.63
2022-08-19T12:42:55.006Z,25.23
2022-08-19T12:45:23.636Z,26.33
2022-08-19T12:47:54.959Z,27.00
2022-08-19T12:50:23.579Z,27.23
2022-08-19T12:52:51.526Z,25.60
2022-08-19T12:55:20.067Z,28.27
2022-08-19T12:57:49.334Z,23.43
2022-08-19T13:00:21.948Z,28.30
2022-08-19T13:02:53.183Z,25.50
2022-08-19T13:05:24.375Z,23.33
2022-08-19T13:07:55.811Z,24.47
2022-08-19T13:10:35.797Z,23.73
2022-08-19T13:13:06.790Z,24.23
2022-08-19T13:15:35.966Z,23.67
2022-08-19T13:18:05.507Z,26.60
2022-08-19T13:20:33.358Z,26.03
2022-08-19T13:23:01.188Z,25.27
2022-08-19T13:25:29.089Z,29.07
2022-08-19T13:27:56.916Z,28.63
2022-08-19T13:30:42.924Z,28.70
2022-08-19T13:33:16.449Z,29.00
2022-08-19T13:35:48.739Z,29.67
2022-08-19T13:38:18.490Z,31.80
2022-08-19T13:40:47.278Z,31.53
2022-08-19T13:43:22.879Z,30.80
2022-08-19T13:45:56.725Z,30.27
2022-08-19T13:48:27.339Z,29.37
2022-08-19T13:50:55.485Z,30.47
2022-08-19T13:53:23.470Z,29.80
2022-08-19T13:55:52.124Z,32.07
2022-08-19T13:58:21.060Z,30.80
2022-08-19T14:00:49.277Z,34.73
2022-08-19T14:03:17.384Z,30.07
2022-08-19T14:05:47.613Z,30.80
2022-08-19T14:08:15.475Z,30.30
2022-08-19T14:10:45.351Z,31.23
2022-08-19T14:13:16.940Z,31.40
2022-08-19T14:15:45.086Z,33.67
2022-08-19T14:18:13.446Z,31.53
2022-08-19T14:20:41.695Z,31.53
2022-08-19T14:23:11.223Z,30.00
2022-08-19T14:25:39.152Z,28.90
2022-08-19T14:28:08.566Z,30.87
2022-08-19T14:30:38.669Z,29.30
2022-08-19T14:33:09.376Z,28.00
2022-08-19T14:35:38.304Z,26.97
2022-08-19T14:38:07.033Z,27.57
2022-08-19T14:40:36.266Z,26.77
2022-08-19T14:43:06.134Z,26.13
2022-08-19T14:45:36.574Z,24.80
2022-08-19T14:48:05.065Z,24.40
2022-08-19T14:50:33.854Z,24.50
2022-08-19T14:53:09.101Z,25.60
2022-08-19T14:55:44.823Z,24.93
2022-08-19T14:58:29.072Z,25.27
2022-08-19T15:00:59.927Z,25.77
2022-08-19T15:03:27.972Z,25.83
2022-08-19T15:05:57.432Z,24.73
2022-08-19T15:08:26.391Z,24.33
2022-08-19T15:10:57.639Z,25.10
2022-08-19T15:13:26.900Z,25.97
2022-08-19T15:15:55.002Z,25.23
2022-08-19T15:18:23.332Z,26.17
2022-08-19T15:20:51.933Z,25.50
2022-08-19T15:23:21.755Z,24.33
2022-08-19T15:25:55.869Z,23.13
2022-08-19T15:28:26.941Z,24.03
2022-08-19T15:30:54.965Z,23.83
2022-08-19T15:33:22.846Z,28.87
2022-08-19T15:35:51.903Z,23.93
2022-08-19T15:38:22.293Z,22.33
2022-08-19T15:40:51.327Z,22.00
2022-08-19T15:43:22.156Z,22.50
2022-08-19T15:45:51.354Z,22.90
2022-08-19T15:48:19.376Z,22.43
2022-08-19T15:50:47.200Z,22.00
2022-08-19T15:53:15.211Z,20.10
2022-08-19T15:55:46.124Z,21.47
2022-08-19T15:58:33.566Z,21.30
2022-08-19T16:01:23.525Z,20.03
2022-08-19T16:04:14.654Z,19.73
2022-08-19T16:06:45.826Z,20.10
2022-08-19T16:09:13.986Z,20.67
2022-08-19T16:11:45.962Z,18.80
2022-08-19T16:14:14.587Z,19.10
2022-08-19T16:16:44.522Z,20.00
2022-08-19T16:19:15.096Z,20.33
2022-08-19T16:21:44.550Z,20.17
2022-08-19T16:24:14.437Z,21.70
2022-08-19T16:26:43.479Z,20.03
2022-08-19T16:29:13.296Z,21.40
2022-08-19T16:31:44.425Z,22.63
2022-08-19T16:34:14.201Z,20.70
2022-08-19T16:36:43.447Z,20.30
2022-08-19T16:39:12.672Z,23.03
2022-08-19T16:41:41.491Z,18.83
2022-08-19T16:44:11.556Z,19.87
2022-08-19T16:46:40.225Z,22.70
2022-08-19T16:49:10.562Z,18.23
2022-08-19T16:51:38.819Z,17.70
2022-08-19T16:54:07.516Z,19.07
2022-08-19T16:56:36.022Z,17.17
2022-08-19T16:59:04.671Z,17.63
2022-08-19T17:01:32.671Z,21.73
2022-08-19T17:04:00.515Z,17.57
2022-08-19T17:06:32.054Z,18.60
2022-08-19T17:09:02.825Z,18.27
2022-08-19T17:11:32.942Z,17.47
2022-08-19T17:14:01.931Z,18.53
2022-08-19T17:16:33.023Z,19.47
2022-08-19T17:19:03.409Z,18.37
2022-08-19T17:21:34.959Z,19.10
2022-08-19T17:24:06.578Z,18.53
2022-08-19T17:26:34.662Z,20.40
2022-08-19T17:29:02.459Z,18.73
2022-08-19T17:31:32.312Z,18.00
2022-08-19T17:34:00.537Z,18.70
2022-08-19T17:36:30.723Z,17.57
2022-08-19T17:39:01.633Z,18.97
2022-08-19T17:41:30.862Z,18.23
2022-08-19T17:43:58.850Z,18.43
2022-08-19T17:46:26.706Z,18.80
2022-08-19T17:48:57.663Z,18.33
2022-08-19T17:51:40.379Z,17.20
2022-08-19T17:54:20.563Z,16.83
2022-08-19T17:56:49.139Z,17.33
2022-08-19T17:59:17.129Z,16.60
2022-08-19T18:01:53.618Z,18.97
2022-08-19T18:04:24.712Z,16.70
2022-08-19T18:06:54.717Z,18.40
2022-08-19T18:09:26.506Z,17.53
2022-08-19T18:11:56.788Z,16.63
2022-08-19T18:14:32.953Z,16.80
2022-08-19T18:17:10.208Z,16.70
2022-08-19T18:19:42.681Z,15.63
2022-08-19T18:22:15.540Z,17.57
2022-08-19T18:24:47.709Z,17.03
2022-08-19T18:27:17.365Z,17.67
2022-08-19T18:29:46.663Z,17.33
2022-08-19T18:32:23.097Z,17.13
2022-08-19T18:34:54.335Z,16.80
2022-08-19T18:37:31.556Z,20.20
2022-08-19T18:40:19.797Z,18.60
2022-08-19T18:43:05.936Z,18.47
2022-08-19T18:45:53.275Z,17.80
2022-08-19T18:48:39.589Z,18.43
2022-08-19T18:51:09.422Z,17.53
2022-08-19T18:53:42.801Z,17.57
2022-08-19T18:56:15.254Z,17.50
2022-08-19T18:58:45.009Z,19.00
2022-08-19T19:01:16.581Z,18.27
2022-08-19T19:03:55.560Z,18.10
2022-08-19T19:06:27.539Z,19.30
2022-08-19T19:08:57.291Z,22.30
2022-08-19T19:11:31.978Z,17.70
2022-08-19T19:14:03.614Z,17.77
2022-08-19T19:16:33.927Z,17.97
2022-08-19T19:19:05.744Z,16.87
2022-08-19T19:21:37.491Z,17.30
2022-08-19T19:24:09.409Z,16.90
2022-08-19T19:26:40.155Z,18.73
2022-08-19T19:29:09.000Z,17.87
2022-08-19T19:31:41.236Z,17.80
2022-08-19T19:34:29.203Z,17.17
2022-08-19T19:36:59.496Z,17.30
2022-08-19T19:39:34.032Z,19.77
2022-08-19T19:42:21.400Z,17.87
2022-08-19T19:44:52.025Z,18.20
2022-08-19T19:47:22.170Z,19.57
2022-08-19T19:50:13.869Z,16.70
2022-08-19T19:52:40.533Z,19.27
2022-08-19T19:55:11.971Z,18.27
2022-08-19T19:57:46.958Z,19.37
2022-08-19T20:00:22.405Z,18.77
2022-08-19T20:02:53.973Z,18.30
2022-08-19T20:05:24.422Z,19.20
2022-08-19T20:08:11.925Z,19.60
2022-08-19T20:10:40.063Z,22.30
2022-08-19T20:13:10.359Z,18.63
2022-08-19T20:15:43.348Z,19.77
2022-08-19T20:18:12.053Z,18.97
2022-08-19T20:20:40.033Z,19.93
2022-08-19T20:23:08.173Z,20.00
2022-08-19T20:25:36.391Z,19.67
2022-08-19T20:28:05.751Z,19.40
2022-08-19T20:30:35.684Z,19.40
2022-08-19T20:33:06.904Z,18.93
2022-08-19T20:35:36.176Z,19.93
2022-08-19T20:38:04.816Z,18.50
2022-08-19T20:40:34.135Z,19.20
2022-08-19T20:43:02.014Z,19.27
2022-08-19T20:45:32.959Z,16.73
2022-08-19T20:48:03.792Z,16.60
2022-08-19T20:50:32.107Z,18.40
2022-08-19T20:53:00.593Z,17.47
2022-08-19T20:55:30.435Z,19.77
2022-08-19T20:57:58.603Z,18.30
2022-08-19T21:00:26.436Z,17.07
2022-08-19T21:02:54.249Z,17.30
2022-08-19T21:05:27.249Z,16.37
2022-08-19T21:07:57.786Z,15.70
2022-08-19T21:10:26.116Z,16.13
2022-08-19T21:12:55.403Z,17.13
2022-08-19T21:15:24.597Z,16.70
2022-08-19T21:17:52.510Z,17.57
2022-08-19T21:20:20.618Z,17.93
2022-08-19T21:22:49.967Z,18.33
2022-08-19T21:25:18.684Z,16.13
2022-08-19T21:27:46.514Z,17.20
2022-08-19T21:30:14.952Z,15.70
2022-08-19T21:32:42.883Z,16.80
2022-08-19T21:35:11.127Z,16.60
2022-08-19T21:37:38.970Z,16.20
2022-08-19T21:40:09.782Z,16.20
2022-08-19T21:42:38.872Z,16.10
2022-08-19T21:45:07.983Z,16.73
2022-08-19T21:47:35.790Z,15.73
2022-08-19T21:50:03.667Z,14.97
2022-08-19T21:52:31.659Z,19.37
2022-08-19T21:54:59.571Z,14.97
2022-08-19T21:57:28.778Z,15.33
2022-08-19T21:59:56.803Z,15.17
2022-08-19T22:02:25.174Z,16.20
2022-08-19T22:04:54.096Z,15.77
2022-08-19T22:07:23.098Z,15.93
2022-08-19T22:09:51.897Z,15.77
2022-08-19T22:12:24.146Z,16.43
2022-08-19T22:14:54.442Z,15.97
2022-08-19T22:17:22.691Z,14.37
2022-08-19T22:19:52.375Z,13.53
2022-08-19T22:22:26.243Z,14.10
2022-08-19T22:24:54.511Z,13.97
2022-08-19T22:27:22.630Z,13.17
2022-08-19T22:29:52.609Z,13.13
2022-08-19T22:32:28.284Z,12.73
2022-08-19T22:34:58.979Z,12.73
2022-08-19T22:37:27.566Z,13.60
2022-08-19T22:39:55.677Z,13.30
2022-08-19T22:42:24.884Z,15.27
2022-08-19T22:44:58.694Z,12.40
2022-08-19T22:47:34.068Z,12.57
2022-08-19T22:50:02.212Z,12.93
2022-08-19T22:52:29.132Z,14.13
2022-08-19T22:55:00.620Z,13.20
2022-08-19T22:57:29.536Z,13.23
2022-08-19T23:00:00.987Z,12.03
2022-08-19T23:02:32.767Z,14.43
2022-08-19T23:05:03.637Z,12.27
2022-08-19T23:07:31.464Z,16.13
2022-08-19T23:09:59.426Z,12.47
2022-08-19T23:12:30.600Z,13.37
2022-08-19T23:15:02.375Z,14.43
2022-08-19T23:17:31.718Z,12.40
2022-08-19T23:19:59.811Z,13.33
2022-08-19T23:22:29.330Z,11.37
2022-08-19T23:25:01.914Z,12.77
2022-08-19T23:27:47.302Z,11.50
2022-08-19T23:30:27.143Z,13.33
2022-08-19T23:32:57.532Z,13.83
2022-08-19T23:35:27.106Z,12.33
2022-08-19T23:37:55.080Z,13.00
2022-08-19T23:40:23.075Z,13.43
2022-08-19T23:42:51.464Z,11.57
2022-08-19T23:45:23.608Z,13.77
2022-08-19T23:47:53.509Z,12.30
2022-08-19T23:50:23.823Z,14.27
2022-08-19T23:52:56.815Z,12.43
2022-08-19T23:55:27.942Z,12.40
2022-08-19T23:57:56.195Z,14.67
